首页
METAR-TAF:

METAR-TAF

机场 :

布林迪西, 意大利

纬度: 40-39N, 经度: 017-57E, 海拔: 15米

当前天气观测

该预报发布于49分钟前的08:50 UTC
风速2节,风向
温度 17°C
湿度 68%
气压 1016 hPa
能见度10公里或以上
1500米以下无云,无积雨云

METAR: LIBR 220850Z 17002KT CAVOK 17/11 Q1016

时间: 10:39 (09:39 UTC)

预报

该预报发布于4小时和39分钟前的05:00 UTC
预报有效从22日的 06点(UTC)到 23日的 06点(UTC)
风速8节,风向南转西南
能见度10公里或以上
少量云层高于4000英尺

TAF: LIBR 220500Z 2206/2306 20008KT 9999 FEW040

超过4000个机场的气象观测和天气预报(METAR&TAF报告)。

可查询的气象台以黄色和红色小点在地图上表示。

将鼠标移到小点上方,可查看气象台名称。

然后点击查看天气观测和预报。

如需切换地图:点击带黑十字的绿色按钮放大地图;点击带横线的绿色按钮缩小地图;或者点击绿色箭头查看邻近地区的地图。


METAR-TAF: